createdAt,value
2016-11-12T00:00:16.745Z,-2.89
2016-11-12T00:01:16.783Z,-2.8
2016-11-12T00:02:16.763Z,-2.83
2016-11-12T00:03:16.751Z,-2.83
2016-11-12T00:04:16.778Z,-2.81
2016-11-12T00:05:16.814Z,-2.68
2016-11-12T00:06:16.515Z,-2.78
2016-11-12T00:07:16.815Z,-2.72
2016-11-12T00:08:16.853Z,-2.72
2016-11-12T00:09:16.854Z,-2.78
2016-11-12T00:10:16.957Z,-2.7
2016-11-12T00:11:17.949Z,-2.78
2016-11-12T00:12:16.903Z,-2.81
2016-11-12T00:13:16.936Z,-2.81
2016-11-12T00:14:16.996Z,-2.76
2016-11-12T00:15:16.983Z,-2.81
2016-11-12T00:16:16.963Z,-2.83
2016-11-12T00:17:16.897Z,-2.78
2016-11-12T00:18:16.920Z,-2.68
2016-11-12T00:19:16.631Z,-2.61
2016-11-12T00:20:16.946Z,-2.62
2016-11-12T00:21:16.948Z,-2.63
2016-11-12T00:22:16.970Z,-2.62
2016-11-12T00:23:17.048Z,-2.58
2016-11-12T00:24:16.975Z,-2.63
2016-11-12T00:25:17.118Z,-2.62
2016-11-12T00:26:16.987Z,-2.58
2016-11-12T00:27:17.015Z,-2.63
2016-11-12T00:28:17.028Z,-2.68
2016-11-12T00:29:17.065Z,-2.78
2016-11-12T00:30:17.093Z,-2.76
2016-11-12T00:31:17.109Z,-2.72
2016-11-12T00:32:17.072Z,-2.7
2016-11-12T00:33:17.084Z,-2.69
2016-11-12T00:34:17.136Z,-2.75
2016-11-12T00:35:17.087Z,-2.75
2016-11-12T00:36:17.099Z,-2.75
2016-11-12T00:37:17.102Z,-2.78
2016-11-12T00:38:17.132Z,-2.83
2016-11-12T00:39:17.126Z,-2.76
2016-11-12T00:40:17.129Z,-2.87
2016-11-12T00:41:17.159Z,-2.96
2016-11-12T00:42:17.161Z,-2.9
2016-11-12T00:43:17.160Z,-2.83
2016-11-12T00:44:17.187Z,-2.9
2016-11-12T00:45:17.209Z,-2.93
2016-11-12T00:46:17.217Z,-3.04
2016-11-12T00:47:16.961Z,-3.04
2016-11-12T00:48:17.228Z,-3.05
2016-11-12T00:49:17.338Z,-3.08
2016-11-12T00:50:18.217Z,-3.05
2016-11-12T00:51:17.259Z,-3.04
2016-11-12T00:52:17.259Z,-3.04
2016-11-12T00:53:17.261Z,-3.09
2016-11-12T00:54:17.280Z,-3.09
2016-11-12T00:55:17.296Z,-3.04
2016-11-12T00:56:17.296Z,-3.15
2016-11-12T00:57:17.309Z,-3.15
2016-11-12T00:58:17.329Z,-3.07
2016-11-12T00:59:17.317Z,-3.07
2016-11-12T01:00:17.355Z,-3.04
2016-11-12T01:01:17.349Z,-3.2
2016-11-12T01:02:17.467Z,-3.14
2016-11-12T01:03:17.367Z,-3.2
2016-11-12T01:04:17.429Z,-3.2
2016-11-12T01:05:17.387Z,-3.25
2016-11-12T01:06:17.507Z,-3.22
2016-11-12T01:07:17.411Z,-3.19
2016-11-12T01:08:17.432Z,-3.23
2016-11-12T01:09:17.442Z,-3.08
2016-11-12T01:10:17.441Z,-3.26
2016-11-12T01:11:17.102Z,-3.26
2016-11-12T01:12:17.453Z,-3.25
2016-11-12T01:13:17.460Z,-3.25
2016-11-12T01:14:17.470Z,-3.2
2016-11-12T01:15:17.484Z,-3.29
2016-11-12T01:16:17.502Z,-3.17
2016-11-12T01:17:17.528Z,-3.25
2016-11-12T01:18:17.525Z,-3.25
2016-11-12T01:19:17.538Z,-3.37
2016-11-12T01:20:17.539Z,-3.27
2016-11-12T01:21:17.652Z,-3.33
2016-11-12T01:22:17.571Z,-3.26
2016-11-12T01:23:17.696Z,-3.22
2016-11-12T01:24:17.557Z,-3.38
2016-11-12T01:25:17.596Z,-3.36
2016-11-12T01:26:17.595Z,-3.27
2016-11-12T01:27:17.609Z,-3.2
2016-11-12T01:28:17.219Z,-3.32
2016-11-12T01:29:17.708Z,-3.26
2016-11-12T01:30:17.638Z,-3.33
2016-11-12T01:31:17.641Z,-3.36
2016-11-12T01:32:17.657Z,-3.27
2016-11-12T01:33:17.366Z,-3.33
2016-11-12T01:34:16.997Z,-3.25
2016-11-12T01:35:17.688Z,-3.37
2016-11-12T01:36:18.710Z,-3.37
2016-11-12T01:37:17.708Z,-3.38
2016-11-12T01:38:17.718Z,-3.29
2016-11-12T01:39:17.719Z,-3.37
2016-11-12T01:40:17.738Z,-3.26
2016-11-12T01:41:17.744Z,-3.36
2016-11-12T01:42:17.766Z,-3.36
2016-11-12T01:43:17.744Z,-3.19
2016-11-12T01:44:17.767Z,-3.29
2016-11-12T01:45:17.779Z,-3.36
2016-11-12T01:46:18.756Z,-3.37
2016-11-12T01:47:17.814Z,-3.37
2016-11-12T01:48:17.819Z,-3.37
2016-11-12T01:49:17.819Z,-3.37
2016-11-12T01:50:17.839Z,-3.44
2016-11-12T01:51:17.932Z,-3.51
2016-11-12T01:52:17.830Z,-3.53
2016-11-12T01:53:17.853Z,-3.51
2016-11-12T01:54:17.878Z,-3.48
2016-11-12T01:55:17.877Z,-3.43
2016-11-12T01:56:17.879Z,-3.55
2016-11-12T01:57:17.907Z,-3.53
2016-11-12T01:58:17.928Z,-3.53
2016-11-12T01:59:17.901Z,-3.59
2016-11-12T02:00:17.918Z,-3.51
2016-11-12T02:01:17.539Z,-3.66
2016-11-12T02:02:17.550Z,-3.62
2016-11-12T02:03:17.949Z,-3.61
2016-11-12T02:04:17.955Z,-3.65
2016-11-12T02:05:17.976Z,-3.64
2016-11-12T02:06:17.600Z,-3.68
2016-11-12T02:07:17.297Z,-3.65
2016-11-12T02:08:18.248Z,-3.71
2016-11-12T02:09:18.008Z,-3.68
2016-11-12T02:10:18.021Z,-3.66
2016-11-12T02:11:19.050Z,-3.75
2016-11-12T02:12:18.033Z,-3.77
2016-11-12T02:13:18.050Z,-3.81
2016-11-12T02:14:18.079Z,-3.81
2016-11-12T02:15:18.081Z,-3.83
2016-11-12T02:16:18.071Z,-3.87
2016-11-12T02:17:18.076Z,-3.8
2016-11-12T02:18:18.090Z,-3.8
2016-11-12T02:19:18.101Z,-3.84
2016-11-12T02:20:18.119Z,-3.78
2016-11-12T02:21:18.132Z,-3.9
2016-11-12T02:22:18.129Z,-3.85
2016-11-12T02:23:18.137Z,-3.88
2016-11-12T02:24:18.181Z,-3.83
2016-11-12T02:25:18.159Z,-3.78
2016-11-12T02:26:18.159Z,-3.87
2016-11-12T02:27:18.217Z,-3.94
2016-11-12T02:28:18.201Z,-3.9
2016-11-12T02:29:18.190Z,-3.88
2016-11-12T02:30:17.823Z,-3.95
2016-11-12T02:31:18.272Z,-3.88
2016-11-12T02:32:17.910Z,-3.87
2016-11-12T02:33:18.232Z,-3.88
2016-11-12T02:34:18.261Z,-3.95
2016-11-12T02:35:19.221Z,-3.95
2016-11-12T02:36:18.278Z,-3.91
2016-11-12T02:37:18.260Z,-3.87
2016-11-12T02:38:18.273Z,-3.84
2016-11-12T02:39:17.909Z,-3.91
2016-11-12T02:40:17.981Z,-3.95
2016-11-12T02:41:18.368Z,-3.88
2016-11-12T02:42:17.944Z,-3.99
2016-11-12T02:43:18.360Z,-3.95
2016-11-12T02:44:18.359Z,-3.94
2016-11-12T02:45:18.402Z,-3.98
2016-11-12T02:46:18.420Z,-3.99
2016-11-12T02:47:18.377Z,-4.06
2016-11-12T02:48:18.362Z,-4.12
2016-11-12T02:49:18.410Z,-4.12
2016-11-12T02:50:18.393Z,-4.08
2016-11-12T02:51:18.404Z,-4.14
2016-11-12T02:52:18.024Z,-4.22
2016-11-12T02:53:18.425Z,-4.13
2016-11-12T02:54:18.432Z,-4.16
2016-11-12T02:55:18.445Z,-4.3
2016-11-12T02:56:18.460Z,-4.35
2016-11-12T02:57:18.551Z,-4.37
2016-11-12T02:58:17.784Z,-4.3
2016-11-12T02:59:18.562Z,-4.4
2016-11-12T03:00:18.549Z,-4.35
2016-11-12T03:01:19.460Z,-4.31
2016-11-12T03:02:19.491Z,-4.3
2016-11-12T03:03:18.555Z,-4.34
2016-11-12T03:04:19.494Z,-4.33
2016-11-12T03:05:18.537Z,-4.27
2016-11-12T03:06:18.543Z,-4.44
2016-11-12T03:07:18.560Z,-4.38
2016-11-12T03:08:18.539Z,-4.47
2016-11-12T03:09:18.566Z,-4.52
2016-11-12T03:10:18.264Z,-4.52
2016-11-12T03:11:18.600Z,-4.51
2016-11-12T03:12:18.590Z,-4.52
2016-11-12T03:13:18.599Z,-4.55
2016-11-12T03:14:18.295Z,-4.55
2016-11-12T03:15:18.689Z,-4.53
2016-11-12T03:16:18.689Z,-4.56
2016-11-12T03:17:18.653Z,-4.62
2016-11-12T03:18:18.324Z,-4.55
2016-11-12T03:19:18.440Z,-4.56
2016-11-12T03:20:18.658Z,-4.53
2016-11-12T03:21:18.664Z,-4.52
2016-11-12T03:22:18.680Z,-4.52
2016-11-12T03:23:18.384Z,-4.49
2016-11-12T03:24:18.402Z,-4.49
2016-11-12T03:25:18.710Z,-4.51
2016-11-12T03:26:18.401Z,-4.56
2016-11-12T03:27:18.720Z,-4.49
2016-11-12T03:28:19.708Z,-4.49
2016-11-12T03:29:18.738Z,-4.47
2016-11-12T03:30:18.750Z,-4.49
2016-11-12T03:31:18.762Z,-4.49
2016-11-12T03:32:18.920Z,-4.49
2016-11-12T03:33:18.760Z,-4.44
2016-11-12T03:34:18.860Z,-4.4
2016-11-12T03:35:18.531Z,-4.34
2016-11-12T03:36:18.911Z,-4.41
2016-11-12T03:37:18.825Z,-4.35
2016-11-12T03:38:18.580Z,-4.37
2016-11-12T03:39:18.920Z,-4.41
2016-11-12T03:40:18.892Z,-4.4
2016-11-12T03:41:18.462Z,-4.4
2016-11-12T03:42:18.868Z,-4.41
2016-11-12T03:43:18.874Z,-4.44
2016-11-12T03:44:18.872Z,-4.35
2016-11-12T03:45:18.882Z,-4.31
2016-11-12T03:46:18.891Z,-4.35
2016-11-12T03:47:19.856Z,-4.33
2016-11-12T03:48:18.614Z,-4.27
2016-11-12T03:49:18.631Z,-4.4
2016-11-12T03:50:18.911Z,-4.33
2016-11-12T03:51:18.712Z,-4.37
2016-11-12T03:52:19.074Z,-4.34
2016-11-12T03:53:18.250Z,-4.27
2016-11-12T03:54:18.985Z,-4.27
2016-11-12T03:55:19.074Z,-4.34
2016-11-12T03:56:18.994Z,-4.23
2016-11-12T03:57:19.080Z,-4.26
2016-11-12T03:58:18.995Z,-4.22
2016-11-12T03:59:19.019Z,-4.3
2016-11-12T04:00:19.021Z,-4.19
2016-11-12T04:01:19.015Z,-4.2
2016-11-12T04:02:18.736Z,-4.13
2016-11-12T04:03:19.040Z,-4.17
2016-11-12T04:04:19.051Z,-4.09
2016-11-12T04:05:18.752Z,-4.06
2016-11-12T04:06:19.071Z,-4.09
2016-11-12T04:07:18.779Z,-4.06
2016-11-12T04:08:19.113Z,-4.12
2016-11-12T04:09:19.102Z,-4.01
2016-11-12T04:10:19.101Z,-3.96
2016-11-12T04:11:19.159Z,-3.9
2016-11-12T04:12:18.809Z,-4.02
2016-11-12T04:13:19.202Z,-4.05
2016-11-12T04:14:18.768Z,-3.94
2016-11-12T04:15:18.877Z,-3.95
2016-11-12T04:16:18.767Z,-3.98
2016-11-12T04:17:18.853Z,-3.95
2016-11-12T04:18:18.871Z,-3.98
2016-11-12T04:19:18.881Z,-3.94
2016-11-12T04:20:19.191Z,-3.96
2016-11-12T04:21:19.196Z,-3.94
2016-11-12T04:22:19.201Z,-3.91
2016-11-12T04:23:18.898Z,-3.9
2016-11-12T04:24:18.910Z,-3.9
2016-11-12T04:25:19.260Z,-3.95
2016-11-12T04:26:19.237Z,-3.9
2016-11-12T04:27:18.872Z,-3.87
2016-11-12T04:28:18.968Z,-3.83
2016-11-12T04:29:19.267Z,-3.8
2016-11-12T04:30:19.397Z,-3.77
2016-11-12T04:31:19.336Z,-3.8
2016-11-12T04:32:19.007Z,-3.78
2016-11-12T04:33:20.292Z,-3.81
2016-11-12T04:34:19.370Z,-3.68
2016-11-12T04:35:19.332Z,-3.68
2016-11-12T04:36:19.042Z,-3.61
2016-11-12T04:37:19.031Z,-3.66
2016-11-12T04:38:19.351Z,-3.59
2016-11-12T04:39:19.365Z,-3.53
2016-11-12T04:40:19.380Z,-3.43
2016-11-12T04:41:19.398Z,-3.48
2016-11-12T04:42:19.390Z,-3.44
2016-11-12T04:43:19.399Z,-3.41
2016-11-12T04:44:19.428Z,-3.32
2016-11-12T04:45:19.031Z,-3.36
2016-11-12T04:46:19.473Z,-3.27
2016-11-12T04:47:19.436Z,-3.23
2016-11-12T04:48:19.441Z,-3.22
2016-11-12T04:49:19.488Z,-3.15
2016-11-12T04:50:19.456Z,-3.23
2016-11-12T04:51:19.567Z,-3.17
2016-11-12T04:52:19.465Z,-3.17
2016-11-12T04:53:19.497Z,-3.22
2016-11-12T04:54:19.507Z,-3.11
2016-11-12T04:55:19.134Z,-3.07
2016-11-12T04:56:19.531Z,-3.09
2016-11-12T04:57:19.157Z,-3.05
2016-11-12T04:58:19.540Z,-2.98
2016-11-12T04:59:19.545Z,-3.02
2016-11-12T05:00:19.262Z,-3.02
2016-11-12T05:01:19.574Z,-2.94
2016-11-12T05:02:19.598Z,-2.96
2016-11-12T05:03:19.589Z,-2.93
2016-11-12T05:04:19.676Z,-2.87
2016-11-12T05:05:19.605Z,-2.87
2016-11-12T05:06:19.682Z,-2.86
2016-11-12T05:07:19.237Z,-2.76
2016-11-12T05:08:19.636Z,-2.81
2016-11-12T05:09:19.648Z,-2.8
2016-11-12T05:10:19.654Z,-2.78
2016-11-12T05:11:20.645Z,-2.78
2016-11-12T05:12:19.671Z,-2.75
2016-11-12T05:13:19.682Z,-2.63
2016-11-12T05:14:19.687Z,-2.65
2016-11-12T05:15:19.699Z,-2.66
2016-11-12T05:16:19.408Z,-2.57
2016-11-12T05:17:19.715Z,-2.68
2016-11-12T05:18:19.730Z,-2.61
2016-11-12T05:19:19.770Z,-2.66
2016-11-12T05:20:19.968Z,-2.52
2016-11-12T05:21:19.864Z,-2.55
2016-11-12T05:22:19.468Z,-2.57
2016-11-12T05:23:19.808Z,-2.52
2016-11-12T05:24:19.797Z,-2.5
2016-11-12T05:25:19.830Z,-2.52
2016-11-12T05:26:19.842Z,-2.54
2016-11-12T05:27:19.524Z,-2.54
2016-11-12T05:28:19.849Z,-2.61
2016-11-12T05:29:19.842Z,-2.54
2016-11-12T05:30:19.846Z,-2.54
2016-11-12T05:31:19.862Z,-2.48
2016-11-12T05:32:19.918Z,-2.34
2016-11-12T05:33:19.901Z,-2.32
2016-11-12T05:34:19.966Z,-2.39
2016-11-12T05:35:19.590Z,-2.32
2016-11-12T05:36:19.536Z,-2.33
2016-11-12T05:37:19.934Z,-2.44
2016-11-12T05:38:19.631Z,-2.39
2016-11-12T05:39:19.966Z,-2.4
2016-11-12T05:40:19.972Z,-2.4
2016-11-12T05:41:19.277Z,-2.44
2016-11-12T05:42:19.966Z,-2.42
2016-11-12T05:43:20.008Z,-2.47
2016-11-12T05:44:19.999Z,-2.37
2016-11-12T05:45:19.699Z,-2.34
2016-11-12T05:46:20.008Z,-2.29
2016-11-12T05:47:20.047Z,-2.28
2016-11-12T05:48:19.741Z,-2.29
2016-11-12T05:49:20.148Z,-2.28
2016-11-12T05:50:20.056Z,-2.29
2016-11-12T05:51:20.075Z,-2.18
2016-11-12T05:52:20.100Z,-2.22
2016-11-12T05:53:20.103Z,-2.23
2016-11-12T05:54:19.789Z,-2.2
2016-11-12T05:55:20.170Z,-2.25
2016-11-12T05:56:21.133Z,-2.15
2016-11-12T05:57:19.829Z,-2.13
2016-11-12T05:58:20.136Z,-2.14
2016-11-12T05:59:19.845Z,-2.17
2016-11-12T06:00:20.167Z,-2.02
2016-11-12T06:01:19.920Z,-2.04
2016-11-12T06:02:20.197Z,-2.07
2016-11-12T06:03:19.802Z,-2.13
2016-11-12T06:04:19.815Z,-2.02
2016-11-12T06:05:19.921Z,-2.04
2016-11-12T06:06:21.204Z,-2.02
2016-11-12T06:07:20.230Z,-2.02
2016-11-12T06:08:20.357Z,-2.04
2016-11-12T06:09:20.279Z,-2.02
2016-11-12T06:10:20.369Z,-2
2016-11-12T06:11:20.289Z,-2
2016-11-12T06:12:20.305Z,-1.97
2016-11-12T06:13:20.304Z,-1.86
2016-11-12T06:14:19.940Z,-1.89
2016-11-12T06:15:21.299Z,-1.76
2016-11-12T06:16:20.340Z,-1.76
2016-11-12T06:17:20.345Z,-1.87
2016-11-12T06:18:20.354Z,-1.89
2016-11-12T06:19:20.052Z,-1.87
2016-11-12T06:20:20.382Z,-1.89
2016-11-12T06:21:20.603Z,-1.9
2016-11-12T06:22:21.382Z,-1.87
2016-11-12T06:23:20.417Z,-1.75
2016-11-12T06:24:20.513Z,-1.69
2016-11-12T06:25:20.480Z,-1.78
2016-11-12T06:26:20.501Z,-1.69
2016-11-12T06:27:20.572Z,-1.69
2016-11-12T06:28:20.580Z,-1.61
2016-11-12T06:29:20.481Z,-1.56
2016-11-12T06:30:20.200Z,-1.53
2016-11-12T06:31:20.517Z,-1.5
2016-11-12T06:32:20.112Z,-1.42
2016-11-12T06:33:20.117Z,-1.4
2016-11-12T06:34:20.524Z,-1.48
2016-11-12T06:35:20.537Z,-1.51
2016-11-12T06:36:20.549Z,-1.54
2016-11-12T06:37:20.569Z,-1.57
2016-11-12T06:38:20.560Z,-1.61
2016-11-12T06:39:20.575Z,-1.56
2016-11-12T06:40:20.672Z,-1.61
2016-11-12T06:41:20.378Z,-1.58
2016-11-12T06:42:20.701Z,-1.58
2016-11-12T06:43:20.671Z,-1.58
2016-11-12T06:44:20.625Z,-1.5
2016-11-12T06:45:20.660Z,-1.56
2016-11-12T06:46:21.621Z,-1.6
2016-11-12T06:47:20.702Z,-1.54
2016-11-12T06:48:20.678Z,-1.61
2016-11-12T06:49:20.680Z,-1.6
2016-11-12T06:50:20.712Z,-1.5
2016-11-12T06:51:20.692Z,-1.48
2016-11-12T06:52:20.406Z,-1.42
2016-11-12T06:53:20.735Z,-1.4
2016-11-12T06:54:20.492Z,-1.38
2016-11-12T06:55:20.756Z,-1.38
2016-11-12T06:56:20.757Z,-1.32
2016-11-12T06:57:20.899Z,-1.35
2016-11-12T06:58:20.840Z,-1.35
2016-11-12T06:59:21.021Z,-1.36
2016-11-12T07:00:20.840Z,-1.32
2016-11-12T07:01:20.854Z,-1.32
2016-11-12T07:02:20.833Z,-1.3
2016-11-12T07:03:20.453Z,-1.3
2016-11-12T07:04:20.841Z,-1.29
2016-11-12T07:05:20.851Z,-1.17
2016-11-12T07:06:20.888Z,-1.21
2016-11-12T07:07:20.883Z,-1.14
2016-11-12T07:08:20.901Z,-1.24
2016-11-12T07:09:20.613Z,-1.19
2016-11-12T07:10:21.170Z,-1.27
2016-11-12T07:11:21.050Z,-1.3
2016-11-12T07:12:21.915Z,-1.36
2016-11-12T07:13:21.059Z,-1.39
2016-11-12T07:14:21.946Z,-1.36
2016-11-12T07:15:21.083Z,-1.35
2016-11-12T07:16:20.712Z,-1.38
2016-11-12T07:17:21.960Z,-1.42
2016-11-12T07:18:21.061Z,-1.33
2016-11-12T07:19:21.011Z,-1.35
2016-11-12T07:20:21.074Z,-1.36
2016-11-12T07:21:21.040Z,-1.3
2016-11-12T07:22:20.658Z,-1.3
2016-11-12T07:23:20.751Z,-1.33
2016-11-12T07:24:20.874Z,-1.12
2016-11-12T07:25:21.090Z,-1.24
2016-11-12T07:26:21.083Z,-1.09
2016-11-12T07:27:21.094Z,-1
2016-11-12T07:28:21.211Z,-1.09
2016-11-12T07:29:21.122Z,-0.94
2016-11-12T07:30:21.140Z,-0.99
2016-11-12T07:31:21.252Z,-1.03
2016-11-12T07:32:21.251Z,-1.03
2016-11-12T07:33:21.282Z,-1.03
2016-11-12T07:34:21.183Z,-1.18
2016-11-12T07:35:21.216Z,-1.12
2016-11-12T07:36:21.220Z,-1.11
2016-11-12T07:37:21.211Z,-1.11
2016-11-12T07:38:21.634Z,-1.19
2016-11-12T07:39:21.238Z,-1.15
2016-11-12T07:40:21.247Z,-1.12
2016-11-12T07:41:21.257Z,-1.21
2016-11-12T07:42:21.263Z,-1.07
2016-11-12T07:43:21.280Z,-1.14
2016-11-12T07:44:21.295Z,-1.18
2016-11-12T07:45:21.308Z,-1.01
2016-11-12T07:46:21.315Z,-1.04
2016-11-12T07:47:21.323Z,-1.04
2016-11-12T07:48:21.349Z,-1.01
2016-11-12T07:49:20.949Z,-0.84
2016-11-12T07:50:22.342Z,-0.8
2016-11-12T07:51:21.060Z,-0.7
2016-11-12T07:52:21.451Z,-0.63
2016-11-12T07:53:21.013Z,-0.72
2016-11-12T07:54:21.423Z,-0.69
2016-11-12T07:55:21.408Z,-0.64
2016-11-12T07:56:21.418Z,-0.75
2016-11-12T07:57:21.843Z,-0.7
2016-11-12T07:58:21.160Z,-0.67
2016-11-12T07:59:21.478Z,-0.63
2016-11-12T08:00:21.474Z,-0.64
2016-11-12T08:01:22.463Z,-0.57
2016-11-12T08:02:21.501Z,-0.57
2016-11-12T08:03:21.541Z,-0.66
2016-11-12T08:04:21.548Z,-0.59
2016-11-12T08:05:21.603Z,-0.59
2016-11-12T08:06:21.560Z,-0.53
2016-11-12T08:07:21.343Z,-0.53
2016-11-12T08:08:21.554Z,-0.62
2016-11-12T08:09:21.578Z,-0.62
2016-11-12T08:10:21.277Z,-0.66
2016-11-12T08:11:21.610Z,-0.67
2016-11-12T08:12:21.608Z,-0.69
2016-11-12T08:13:21.298Z,-0.69
2016-11-12T08:14:21.636Z,-0.59
2016-11-12T08:15:22.740Z,-0.59
2016-11-12T08:16:21.663Z,-0.49
2016-11-12T08:17:21.663Z,-0.48
2016-11-12T08:18:21.688Z,-0.59
2016-11-12T08:19:21.686Z,-0.51
2016-11-12T08:20:21.947Z,-0.48
2016-11-12T08:21:21.701Z,-0.54
2016-11-12T08:22:22.810Z,-0.45
2016-11-12T08:23:22.703Z,-0.46
2016-11-12T08:24:21.440Z,-0.42
2016-11-12T08:25:21.752Z,-0.45
2016-11-12T08:26:21.756Z,-0.36
2016-11-12T08:27:21.789Z,-0.39
2016-11-12T08:28:21.810Z,-0.3
2016-11-12T08:29:21.810Z,-0.26
2016-11-12T08:30:22.850Z,-0.3
2016-11-12T08:31:21.431Z,-0.21
2016-11-12T08:32:21.852Z,-0.1
2016-11-12T08:33:21.864Z,-0.06
2016-11-12T08:34:21.863Z,0
2016-11-12T08:35:21.557Z,0.06
2016-11-12T08:36:21.899Z,0.05
2016-11-12T08:37:21.900Z,0.05
2016-11-12T08:38:21.920Z,0.02
2016-11-12T08:39:21.541Z,-0.09
2016-11-12T08:40:21.932Z,-0.05
2016-11-12T08:41:21.957Z,-0.13
2016-11-12T08:42:21.970Z,-0.05
2016-11-12T08:43:21.977Z,-0.07
2016-11-12T08:44:21.977Z,-0.12
2016-11-12T08:45:22.709Z,-0.03
2016-11-12T08:46:22.004Z,-0.06
2016-11-12T08:47:22.024Z,-0.07
2016-11-12T08:48:22.039Z,-0.06
2016-11-12T08:49:22.051Z,-0.12
2016-11-12T08:50:21.735Z,0.02
2016-11-12T08:51:22.079Z,-0.06
2016-11-12T08:52:21.700Z,-0.13
2016-11-12T08:53:21.389Z,-0.09
2016-11-12T08:54:22.121Z,-0.07
2016-11-12T08:55:22.113Z,-0.02
2016-11-12T08:56:22.024Z,0.13
2016-11-12T08:57:23.133Z,0.09
2016-11-12T08:58:22.158Z,0.02
2016-11-12T08:59:22.169Z,-0.09
2016-11-12T09:00:22.172Z,-0.2
2016-11-12T09:01:22.194Z,-0.21
2016-11-12T09:02:23.190Z,-0.26
2016-11-12T09:03:22.226Z,-0.3
2016-11-12T09:04:22.223Z,-0.28
2016-11-12T09:05:21.921Z,-0.23
2016-11-12T09:06:21.850Z,-0.2
2016-11-12T09:07:22.276Z,-0.2
2016-11-12T09:08:22.279Z,-0.07
2016-11-12T09:09:22.270Z,-0.12
2016-11-12T09:10:22.319Z,0.01
2016-11-12T09:11:22.519Z,0
2016-11-12T09:12:22.305Z,0.02
2016-11-12T09:13:22.323Z,0
2016-11-12T09:14:22.344Z,0.01
2016-11-12T09:15:22.372Z,-0.03
2016-11-12T09:16:22.365Z,0.05
2016-11-12T09:17:21.988Z,0.02
2016-11-12T09:18:22.412Z,0.13
2016-11-12T09:19:23.437Z,0.16
2016-11-12T09:20:22.428Z,0.23
2016-11-12T09:21:22.431Z,0.27
2016-11-12T09:22:22.463Z,0.2
2016-11-12T09:23:22.449Z,0.33
2016-11-12T09:24:22.555Z,0.4
2016-11-12T09:25:22.087Z,0.42
2016-11-12T09:26:22.492Z,0.45
2016-11-12T09:27:22.204Z,0.48
2016-11-12T09:28:22.522Z,0.52
2016-11-12T09:29:22.556Z,0.66
2016-11-12T09:30:22.542Z,0.76
2016-11-12T09:31:22.566Z,0.81
2016-11-12T09:32:22.182Z,0.71
2016-11-12T09:33:22.261Z,0.82
2016-11-12T09:34:22.596Z,0.85
2016-11-12T09:35:22.688Z,0.91
2016-11-12T09:36:22.708Z,0.99
2016-11-12T09:37:22.244Z,1
2016-11-12T09:38:22.669Z,1.03
2016-11-12T09:39:22.703Z,1.09
2016-11-12T09:40:22.740Z,1.13
2016-11-12T09:41:23.651Z,1.1
2016-11-12T09:42:22.671Z,1.14
2016-11-12T09:43:22.722Z,1.06
2016-11-12T09:44:22.721Z,0.94
2016-11-12T09:45:22.719Z,0.94
2016-11-12T09:46:22.742Z,1.07
2016-11-12T09:47:22.758Z,1.1
2016-11-12T09:48:22.761Z,1.22
2016-11-12T09:49:22.791Z,1.25
2016-11-12T09:50:22.818Z,1.24
2016-11-12T09:51:22.849Z,1.24
2016-11-12T09:52:22.940Z,1.3
2016-11-12T09:53:22.941Z,1.32
2016-11-12T09:54:22.901Z,1.28
2016-11-12T09:55:22.907Z,1.28
2016-11-12T09:56:22.881Z,1.3
2016-11-12T09:57:22.565Z,1.28
2016-11-12T09:58:22.582Z,1.22
2016-11-12T09:59:22.905Z,1.25
2016-11-12T10:00:22.931Z,1.31
2016-11-12T10:01:22.623Z,1.3
2016-11-12T10:02:22.939Z,1.25
2016-11-12T10:03:22.956Z,1.22
2016-11-12T10:04:23.035Z,1.21
2016-11-12T10:05:22.980Z,1.27
2016-11-12T10:06:22.700Z,1.39
2016-11-12T10:07:23.065Z,1.48
2016-11-12T10:08:23.991Z,1.48
2016-11-12T10:09:23.147Z,1.4
2016-11-12T10:10:23.068Z,1.42
2016-11-12T10:11:23.141Z,1.4
2016-11-12T10:12:23.117Z,1.4
2016-11-12T10:13:23.076Z,1.46
2016-11-12T10:14:23.100Z,1.42
2016-11-12T10:15:22.804Z,1.56
2016-11-12T10:16:22.760Z,1.56
2016-11-12T10:17:23.145Z,1.57
2016-11-12T10:18:23.152Z,1.6
2016-11-12T10:19:23.163Z,1.66
2016-11-12T10:20:24.169Z,1.53
2016-11-12T10:21:23.203Z,1.57
2016-11-12T10:22:23.350Z,1.64
2016-11-12T10:23:23.240Z,1.71
2016-11-12T10:24:23.222Z,1.75
2016-11-12T10:25:23.321Z,1.74
2016-11-12T10:26:23.043Z,1.84
2016-11-12T10:27:23.297Z,1.82
2016-11-12T10:28:23.295Z,1.86
2016-11-12T10:29:22.979Z,1.76
2016-11-12T10:30:22.903Z,1.75
2016-11-12T10:31:23.310Z,1.7
2016-11-12T10:32:23.337Z,1.74
2016-11-12T10:33:23.356Z,1.95
2016-11-12T10:34:23.361Z,1.93
2016-11-12T10:35:23.382Z,1.97
2016-11-12T10:36:23.391Z,1.82
2016-11-12T10:37:23.412Z,1.98
2016-11-12T10:38:24.428Z,1.89
2016-11-12T10:39:23.541Z,1.93
2016-11-12T10:40:23.444Z,2.03
2016-11-12T10:41:23.245Z,2.04
2016-11-12T10:42:23.468Z,2.12
2016-11-12T10:43:23.488Z,2.22
2016-11-12T10:44:23.503Z,2.21
2016-11-12T10:45:23.166Z,2.05
2016-11-12T10:46:23.507Z,2.04
2016-11-12T10:47:23.541Z,2.1
2016-11-12T10:48:23.557Z,2.21
2016-11-12T10:49:23.571Z,2.23
2016-11-12T10:50:23.591Z,2.4
2016-11-12T10:51:23.609Z,2.41
2016-11-12T10:52:23.624Z,2.34
2016-11-12T10:53:22.904Z,2.36
2016-11-12T10:54:23.637Z,2.37
2016-11-12T10:55:23.673Z,2.39
2016-11-12T10:56:23.392Z,2.4
2016-11-12T10:57:24.673Z,2.36
2016-11-12T10:58:23.688Z,2.46
2016-11-12T10:59:23.401Z,2.57
2016-11-12T11:00:23.717Z,2.51
2016-11-12T11:01:23.736Z,2.47
2016-11-12T11:02:23.740Z,2.57
2016-11-12T11:03:23.373Z,2.57
2016-11-12T11:04:23.761Z,2.69
2016-11-12T11:05:23.780Z,2.68
2016-11-12T11:06:23.788Z,2.87
2016-11-12T11:07:23.850Z,3.05
2016-11-12T11:08:23.830Z,3.06
2016-11-12T11:09:23.881Z,3.22
2016-11-12T11:10:23.843Z,3.21
2016-11-12T11:11:23.606Z,3.22
2016-11-12T11:12:23.883Z,3.05
2016-11-12T11:13:23.947Z,2.98
2016-11-12T11:14:23.917Z,3
2016-11-12T11:15:23.937Z,3.11
2016-11-12T11:16:23.933Z,3.16
2016-11-12T11:17:23.569Z,3.03
2016-11-12T11:18:23.663Z,2.95
2016-11-12T11:19:23.968Z,2.91
2016-11-12T11:20:24.013Z,2.91
2016-11-12T11:21:24.032Z,2.9
2016-11-12T11:22:24.021Z,2.91
2016-11-12T11:23:24.040Z,3
2016-11-12T11:24:23.750Z,3.09
2016-11-12T11:25:24.078Z,3.13
2016-11-12T11:26:24.096Z,3.4
2016-11-12T11:27:24.102Z,3.5
2016-11-12T11:28:23.720Z,3.61
2016-11-12T11:29:25.143Z,3.82
2016-11-12T11:30:24.129Z,3.91
2016-11-12T11:31:23.855Z,3.96
2016-11-12T11:32:24.161Z,3.68
2016-11-12T11:33:24.192Z,3.68
2016-11-12T11:34:23.514Z,3.74
2016-11-12T11:35:23.901Z,3.68
2016-11-12T11:36:23.901Z,3.55
2016-11-12T11:37:23.927Z,3.63
2016-11-12T11:38:24.249Z,3.73
2016-11-12T11:39:25.248Z,3.56
2016-11-12T11:40:24.310Z,3.43
2016-11-12T11:41:24.320Z,3.45
2016-11-12T11:42:24.314Z,3.37
2016-11-12T11:43:24.348Z,3.36
2016-11-12T11:44:24.352Z,3.34
2016-11-12T11:45:24.340Z,3.46
2016-11-12T11:46:24.375Z,3.58
2016-11-12T11:47:24.140Z,3.59
2016-11-12T11:48:24.023Z,3.49
2016-11-12T11:49:24.440Z,3.59
2016-11-12T11:50:24.477Z,3.59
2016-11-12T11:51:24.482Z,3.58
2016-11-12T11:52:24.151Z,3.49
2016-11-12T11:53:24.188Z,3.24
2016-11-12T11:54:24.492Z,3.15
2016-11-12T11:55:24.520Z,3.15
2016-11-12T11:56:24.582Z,3.12
2016-11-12T11:57:24.529Z,3.29
2016-11-12T11:58:24.573Z,3.46
2016-11-12T11:59:24.565Z,3.56
2016-11-12T12:00:24.318Z,3.46
2016-11-12T12:01:24.590Z,3.34
2016-11-12T12:02:24.620Z,3.4
2016-11-12T12:03:25.280Z,3.27
2016-11-12T12:04:24.647Z,3.24
2016-11-12T12:05:24.770Z,3.21
2016-11-12T12:06:25.653Z,3.24
2016-11-12T12:07:24.765Z,3.21
2016-11-12T12:08:24.757Z,3.26
2016-11-12T12:09:25.195Z,3.13
2016-11-12T12:10:24.711Z,3.13
2016-11-12T12:11:24.752Z,3.11
2016-11-12T12:12:24.384Z,2.91
2016-11-12T12:13:24.768Z,2.77
2016-11-12T12:14:24.775Z,2.87
2016-11-12T12:15:24.789Z,2.9
2016-11-12T12:16:24.432Z,2.9
2016-11-12T12:17:25.811Z,2.77
2016-11-12T12:18:24.836Z,2.83
2016-11-12T12:19:24.846Z,2.87
2016-11-12T12:20:24.621Z,2.93
2016-11-12T12:21:24.938Z,2.95
2016-11-12T12:22:25.886Z,2.79
2016-11-12T12:23:24.887Z,2.77
2016-11-12T12:24:24.930Z,2.61
2016-11-12T12:25:24.962Z,2.75
2016-11-12T12:26:24.941Z,2.76
2016-11-12T12:27:24.978Z,2.77
2016-11-12T12:28:24.997Z,2.75
2016-11-12T12:29:24.740Z,2.75
2016-11-12T12:30:24.995Z,2.73
2016-11-12T12:31:25.029Z,2.76
2016-11-12T12:32:25.153Z,2.75
2016-11-12T12:33:25.079Z,2.72
2016-11-12T12:34:25.059Z,2.93
2016-11-12T12:35:24.748Z,2.93
2016-11-12T12:36:25.144Z,2.97
2016-11-12T12:37:25.112Z,2.93
2016-11-12T12:38:25.196Z,2.88
2016-11-12T12:39:24.923Z,2.82
2016-11-12T12:40:25.256Z,2.77
2016-11-12T12:41:25.176Z,2.51
2016-11-12T12:42:25.189Z,2.36
2016-11-12T12:43:25.640Z,2.28
2016-11-12T12:44:25.194Z,2.22
2016-11-12T12:45:25.224Z,2.21
2016-11-12T12:46:25.206Z,2.18
2016-11-12T12:47:25.272Z,2.12
2016-11-12T12:48:25.240Z,2.12
2016-11-12T12:49:25.307Z,2.07
2016-11-12T12:50:24.962Z,2.07
2016-11-12T12:51:25.514Z,2.07
2016-11-12T12:52:25.325Z,2.01
2016-11-12T12:53:25.345Z,2
2016-11-12T12:54:25.363Z,1.98
2016-11-12T12:55:25.349Z,1.85
2016-11-12T12:56:25.373Z,1.82
2016-11-12T12:57:26.351Z,1.82
2016-11-12T12:58:25.397Z,1.81
2016-11-12T12:59:25.082Z,1.86
2016-11-12T13:00:25.098Z,1.89
2016-11-12T13:01:25.130Z,1.89
2016-11-12T13:02:25.436Z,1.86
2016-11-12T13:03:25.452Z,1.85
2016-11-12T13:04:25.169Z,1.76